createdAt,value
2022-09-14T00:01:14.246Z,1002.77
2022-09-14T00:01:54.306Z,1002.80
2022-09-14T00:02:54.329Z,1002.78
2022-09-14T00:03:54.279Z,1002.78
2022-09-14T00:04:54.306Z,1002.78
2022-09-14T00:05:54.340Z,1002.80
2022-09-14T00:06:54.359Z,1002.83
2022-09-14T00:07:54.390Z,1002.81
2022-09-14T00:08:54.417Z,1002.85
2022-09-14T00:09:54.446Z,1002.84
2022-09-14T00:10:54.468Z,1002.86
2022-09-14T00:11:54.620Z,1002.85
2022-09-14T00:12:54.524Z,1002.90
2022-09-14T00:13:54.554Z,1002.90
2022-09-14T00:14:54.579Z,1002.92
2022-09-14T00:16:01.780Z,1002.96
2022-09-14T00:17:59.096Z,1002.91
2022-09-14T00:18:58.653Z,1002.92
2022-09-14T00:20:51.592Z,1002.94
2022-09-14T00:21:51.610Z,1002.91
2022-09-14T00:23:56.102Z,1002.88
2022-09-14T00:24:55.658Z,1002.85
2022-09-14T00:26:59.790Z,1002.84
2022-09-14T00:27:59.733Z,1002.85
2022-09-14T00:30:04.204Z,1002.82
2022-09-14T00:31:03.758Z,1002.79
2022-09-14T00:33:07.788Z,1002.71
2022-09-14T00:34:07.799Z,1002.70
2022-09-14T00:36:12.315Z,1002.60
2022-09-14T00:37:11.845Z,1002.61
2022-09-14T00:39:15.874Z,1002.58
2022-09-14T00:40:15.948Z,1002.60
2022-09-14T00:42:20.461Z,1002.58
2022-09-14T00:43:19.933Z,1002.58
2022-09-14T00:45:24.052Z,1002.57
2022-09-14T00:46:23.974Z,1002.55
2022-09-14T00:48:28.468Z,1002.50
2022-09-14T00:49:28.024Z,1002.48
2022-09-14T00:51:21.158Z,1002.48
2022-09-14T00:52:21.178Z,1002.46
2022-09-14T00:54:25.669Z,1002.50
2022-09-14T00:55:25.240Z,1002.50
2022-09-14T00:57:29.263Z,1002.44
2022-09-14T00:58:29.278Z,1002.42
2022-09-14T01:00:33.771Z,1002.45
2022-09-14T01:01:33.408Z,1002.45
2022-09-14T01:03:26.465Z,1002.41
2022-09-14T01:04:26.484Z,1002.38
2022-09-14T01:06:30.973Z,1002.29
2022-09-14T01:07:30.527Z,1002.27
2022-09-14T01:09:34.552Z,1002.26
2022-09-14T01:10:34.576Z,1002.29
2022-09-14T01:12:39.064Z,1002.26
2022-09-14T01:13:38.613Z,1002.28
2022-09-14T01:15:42.646Z,1002.27
2022-09-14T01:16:42.718Z,1002.27
2022-09-14T01:18:47.181Z,1002.24
2022-09-14T01:19:46.712Z,1002.21
2022-09-14T01:21:39.652Z,1002.19
2022-09-14T01:22:39.671Z,1002.19
2022-09-14T01:24:44.155Z,1002.20
2022-09-14T01:25:43.711Z,1002.18
2022-09-14T01:27:47.735Z,1002.20
2022-09-14T01:28:47.755Z,1002.20
2022-09-14T01:30:52.246Z,1002.22
2022-09-14T01:31:51.892Z,1002.21
2022-09-14T01:33:55.832Z,1002.23
2022-09-14T01:34:55.843Z,1002.16
2022-09-14T01:37:00.761Z,1002.12
2022-09-14T01:37:59.888Z,1002.09
2022-09-14T01:40:04.011Z,1002.12
2022-09-14T01:41:03.935Z,1002.12
2022-09-14T01:43:08.421Z,1002.11
2022-09-14T01:44:07.974Z,1002.08
2022-09-14T01:46:12.046Z,1002.08
2022-09-14T01:47:12.018Z,1002.12
2022-09-14T01:49:16.513Z,1002.17
2022-09-14T01:50:16.059Z,1002.17
2022-09-14T01:52:20.083Z,1002.15
2022-09-14T01:53:20.097Z,1002.15
2022-09-14T01:55:24.590Z,1002.13
2022-09-14T01:56:24.171Z,1002.13
2022-09-14T01:58:28.285Z,1002.11
2022-09-14T01:59:28.219Z,1002.10
2022-09-14T02:01:21.747Z,1002.10
2022-09-14T02:02:21.232Z,1002.12
2022-09-14T02:04:25.208Z,1002.08
2022-09-14T02:05:25.221Z,1002.08
2022-09-14T02:07:29.715Z,1002.00
2022-09-14T02:08:29.263Z,1001.97
2022-09-14T02:10:33.286Z,1001.95
2022-09-14T02:11:33.305Z,1001.92
2022-09-14T02:13:37.793Z,1001.94
2022-09-14T02:14:37.343Z,1001.92
2022-09-14T02:16:41.928Z,1001.96
2022-09-14T02:17:41.876Z,1001.93
2022-09-14T02:18:41.899Z,1001.89
2022-09-14T02:19:41.929Z,1001.88
2022-09-14T02:20:41.954Z,1001.87
2022-09-14T02:21:41.984Z,1001.87
2022-09-14T02:22:42.006Z,1001.87
2022-09-14T02:23:42.033Z,1001.85
2022-09-14T02:24:42.057Z,1001.82
2022-09-14T02:25:42.085Z,1001.86
2022-09-14T02:26:42.117Z,1001.81
2022-09-14T02:27:42.135Z,1001.84
2022-09-14T02:28:42.247Z,1001.83
2022-09-14T02:29:42.193Z,1001.81
2022-09-14T02:30:42.216Z,1001.80
2022-09-14T02:31:42.258Z,1001.78
2022-09-14T02:32:42.272Z,1001.79
2022-09-14T02:33:42.295Z,1001.77
2022-09-14T02:34:42.320Z,1001.74
2022-09-14T02:35:42.345Z,1001.70
2022-09-14T02:36:42.375Z,1001.72
2022-09-14T02:37:42.400Z,1001.64
2022-09-14T02:38:42.426Z,1001.61
2022-09-14T02:39:42.494Z,1001.59
2022-09-14T02:40:42.477Z,1001.56
2022-09-14T02:41:42.502Z,1001.53
2022-09-14T02:42:42.538Z,1001.49
2022-09-14T02:43:42.556Z,1001.51
2022-09-14T02:44:42.582Z,1001.51
2022-09-14T02:45:42.606Z,1001.49
2022-09-14T02:46:42.737Z,1001.49
2022-09-14T02:47:42.658Z,1001.50
2022-09-14T02:48:42.688Z,1001.54
2022-09-14T02:49:42.711Z,1001.55
2022-09-14T02:50:42.738Z,1001.53
2022-09-14T02:51:42.764Z,1001.53
2022-09-14T02:52:42.789Z,1001.56
2022-09-14T02:53:42.818Z,1001.53
2022-09-14T02:54:42.840Z,1001.54
2022-09-14T02:55:42.869Z,1001.54
2022-09-14T02:56:42.898Z,1001.55
2022-09-14T02:57:42.921Z,1001.55
2022-09-14T02:58:43.000Z,1001.53
2022-09-14T02:59:42.969Z,1001.49
2022-09-14T03:00:43.057Z,1001.50
2022-09-14T03:01:43.049Z,1001.49
2022-09-14T03:02:43.044Z,1001.47
2022-09-14T03:03:43.071Z,1001.47
2022-09-14T03:04:43.099Z,1001.45
2022-09-14T03:05:43.130Z,1001.49
2022-09-14T03:06:43.148Z,1001.47
2022-09-14T03:07:43.178Z,1001.53
2022-09-14T03:08:43.262Z,1001.52
2022-09-14T03:09:43.229Z,1001.50
2022-09-14T03:10:43.252Z,1001.55
2022-09-14T03:11:43.282Z,1001.56
2022-09-14T03:12:43.306Z,1001.58
2022-09-14T03:13:43.328Z,1001.55
2022-09-14T03:14:43.357Z,1001.55
2022-09-14T03:15:43.409Z,1001.58
2022-09-14T03:16:43.411Z,1001.57
2022-09-14T03:17:43.434Z,1001.56
2022-09-14T03:18:43.577Z,1001.57
2022-09-14T03:19:43.487Z,1001.56
2022-09-14T03:20:43.507Z,1001.55
2022-09-14T03:21:43.542Z,1001.51
2022-09-14T03:22:43.563Z,1001.45
2022-09-14T03:23:43.590Z,1001.48
2022-09-14T03:24:43.614Z,1001.43
2022-09-14T03:25:43.646Z,1001.40
2022-09-14T03:26:43.664Z,1001.37
2022-09-14T03:27:43.692Z,1001.37
2022-09-14T03:28:43.721Z,1001.34
2022-09-14T03:29:43.742Z,1001.38
2022-09-14T03:30:43.771Z,1001.37
2022-09-14T03:31:43.892Z,1001.36
2022-09-14T03:32:43.820Z,1001.38
2022-09-14T03:33:43.931Z,1001.38
2022-09-14T03:34:43.871Z,1001.36
2022-09-14T03:35:43.899Z,1001.37
2022-09-14T03:36:43.923Z,1001.36
2022-09-14T03:37:43.952Z,1001.33
2022-09-14T03:38:43.976Z,1001.30
2022-09-14T03:39:44.027Z,1001.31
2022-09-14T03:40:44.027Z,1001.30
2022-09-14T03:41:44.055Z,1001.31
2022-09-14T03:42:44.082Z,1001.30
2022-09-14T03:43:44.178Z,1001.28
2022-09-14T03:44:44.130Z,1001.27
2022-09-14T03:45:44.157Z,1001.30
2022-09-14T03:46:44.256Z,1001.27
2022-09-14T03:47:44.210Z,1001.30
2022-09-14T03:48:44.232Z,1001.26
2022-09-14T03:49:44.260Z,1001.26
2022-09-14T03:50:44.285Z,1001.25
2022-09-14T03:51:44.311Z,1001.28
2022-09-14T03:52:44.335Z,1001.26
2022-09-14T03:53:44.487Z,1001.27
2022-09-14T03:54:44.389Z,1001.24
2022-09-14T03:55:44.412Z,1001.21
2022-09-14T03:56:44.440Z,1001.18
2022-09-14T03:57:44.470Z,1001.18
2022-09-14T03:58:44.490Z,1001.17
2022-09-14T03:59:44.517Z,1001.16
2022-09-14T04:00:44.547Z,1001.17
2022-09-14T04:01:44.639Z,1001.15
2022-09-14T04:02:44.642Z,1001.15
2022-09-14T04:03:44.620Z,1001.14
2022-09-14T04:04:44.704Z,1001.12
2022-09-14T04:05:44.672Z,1001.12
2022-09-14T04:06:44.695Z,1001.11
2022-09-14T04:07:44.723Z,1001.13
2022-09-14T04:08:44.744Z,1001.11
2022-09-14T04:09:44.774Z,1001.13
2022-09-14T04:10:44.797Z,1001.15
2022-09-14T04:11:44.819Z,1001.12
2022-09-14T04:12:44.852Z,1001.11
2022-09-14T04:13:44.877Z,1001.11
2022-09-14T04:14:44.902Z,1001.11
2022-09-14T04:15:44.967Z,1001.09
2022-09-14T04:16:44.954Z,1001.10
2022-09-14T04:17:44.977Z,1001.13
2022-09-14T04:18:45.005Z,1001.13
2022-09-14T04:19:45.028Z,1001.15
2022-09-14T04:20:45.056Z,1001.16
2022-09-14T04:21:45.081Z,1001.16
2022-09-14T04:22:45.105Z,1001.14
2022-09-14T04:24:13.584Z,1001.17
2022-09-14T04:24:45.156Z,1001.17
2022-09-14T04:25:45.187Z,1001.13
2022-09-14T04:26:45.211Z,1001.13
2022-09-14T04:27:55.044Z,1001.09
2022-09-14T04:28:45.259Z,1001.09
2022-09-14T04:29:45.284Z,1001.07
2022-09-14T04:30:45.309Z,1001.09
2022-09-14T04:31:45.360Z,1001.06
2022-09-14T04:32:45.356Z,1001.08
2022-09-14T04:33:45.390Z,1001.09
2022-09-14T04:34:45.412Z,1001.11
2022-09-14T04:35:45.438Z,1001.11
2022-09-14T04:36:45.469Z,1001.12
2022-09-14T04:37:45.492Z,1001.10
2022-09-14T04:38:45.514Z,1001.10
2022-09-14T04:39:45.642Z,1001.05
2022-09-14T04:40:45.564Z,1001.08
2022-09-14T04:41:45.596Z,1001.10
2022-09-14T04:42:45.616Z,1001.07
2022-09-14T04:43:45.645Z,1001.06
2022-09-14T04:44:45.667Z,1001.06
2022-09-14T04:45:45.694Z,1001.05
2022-09-14T04:46:47.094Z,1001.04
2022-09-14T04:47:45.751Z,1001.09
2022-09-14T04:48:45.771Z,1001.07
2022-09-14T04:49:45.798Z,1001.07
2022-09-14T04:50:45.819Z,1001.05
2022-09-14T04:51:45.852Z,1001.06
2022-09-14T04:52:45.955Z,1001.04
2022-09-14T04:53:45.895Z,1001.03
2022-09-14T04:54:45.921Z,1001.02
2022-09-14T04:55:45.944Z,1000.98
2022-09-14T04:56:45.997Z,1000.97
2022-09-14T04:57:46.003Z,1000.98
2022-09-14T04:58:50.697Z,1000.98
2022-09-14T04:59:46.047Z,1000.98
2022-09-14T05:00:46.078Z,1001.00
2022-09-14T05:01:46.147Z,1000.99
2022-09-14T05:02:46.193Z,1000.97
2022-09-14T05:03:46.155Z,1000.96
2022-09-14T05:04:46.177Z,1000.93
2022-09-14T05:05:46.208Z,1000.93
2022-09-14T05:06:46.227Z,1000.88
2022-09-14T05:07:46.252Z,1000.84
2022-09-14T05:08:46.287Z,1000.82
2022-09-14T05:09:46.318Z,1000.81
2022-09-14T05:10:46.330Z,1000.80
2022-09-14T05:11:46.355Z,1000.82
2022-09-14T05:12:46.401Z,1000.86
2022-09-14T05:13:50.022Z,1000.82
2022-09-14T05:14:46.434Z,1000.83
2022-09-14T05:15:46.497Z,1000.85
2022-09-14T05:16:46.480Z,1000.86
2022-09-14T05:17:46.510Z,1000.86
2022-09-14T05:18:46.536Z,1000.87
2022-09-14T05:19:46.560Z,1000.86
2022-09-14T05:20:46.612Z,1000.87
2022-09-14T05:21:46.615Z,1000.88
2022-09-14T05:22:46.642Z,1000.85
2022-09-14T05:23:46.682Z,1000.86
2022-09-14T05:24:46.804Z,1000.85
2022-09-14T05:25:46.736Z,1000.87
2022-09-14T05:26:46.740Z,1000.89
2022-09-14T05:27:46.767Z,1000.90
2022-09-14T05:28:46.793Z,1000.88
2022-09-14T05:29:46.817Z,1000.89
2022-09-14T05:30:46.880Z,1000.89
2022-09-14T05:31:46.870Z,1000.89
2022-09-14T05:32:46.907Z,1000.86
2022-09-14T05:33:46.973Z,1000.88
2022-09-14T05:34:46.942Z,1000.89
2022-09-14T05:35:46.972Z,1000.89
2022-09-14T05:36:46.998Z,1000.87
2022-09-14T05:37:47.022Z,1000.89
2022-09-14T05:38:47.051Z,1000.92
2022-09-14T05:39:47.109Z,1000.88
2022-09-14T05:40:47.135Z,1000.86
2022-09-14T05:41:47.123Z,1000.88
2022-09-14T05:42:47.148Z,1000.87
2022-09-14T05:43:47.174Z,1000.87
2022-09-14T05:44:47.212Z,1000.91
2022-09-14T05:45:47.238Z,1000.86
2022-09-14T05:46:47.296Z,1000.84
2022-09-14T05:47:47.280Z,1000.83
2022-09-14T05:48:47.301Z,1000.87
2022-09-14T05:49:47.329Z,1000.79
2022-09-14T05:50:47.373Z,1000.82
2022-09-14T05:51:47.378Z,1000.81
2022-09-14T05:52:47.408Z,1000.83
2022-09-14T05:53:47.429Z,1000.83
2022-09-14T05:54:47.453Z,1000.80
2022-09-14T05:55:47.482Z,1000.81
2022-09-14T05:56:47.508Z,1000.75
2022-09-14T05:57:47.532Z,1000.78
2022-09-14T05:58:47.562Z,1000.74
2022-09-14T05:59:47.587Z,1000.72
2022-09-14T06:00:47.622Z,1000.74
2022-09-14T06:01:47.674Z,1000.71
2022-09-14T06:02:47.679Z,1000.69
2022-09-14T06:03:47.689Z,1000.72
2022-09-14T06:04:47.713Z,1000.74
2022-09-14T06:05:47.801Z,1000.67
2022-09-14T06:07:07.755Z,1000.70
2022-09-14T06:07:47.802Z,1000.68
2022-09-14T06:08:47.820Z,1000.71
2022-09-14T06:09:47.840Z,1000.67
2022-09-14T06:10:47.864Z,1000.68
2022-09-14T06:11:47.895Z,1000.70
2022-09-14T06:12:49.491Z,1000.71
2022-09-14T06:13:47.954Z,1000.72
2022-09-14T06:14:47.969Z,1000.75
2022-09-14T06:15:47.994Z,1000.74
2022-09-14T06:16:48.015Z,1000.76
2022-09-14T06:17:48.049Z,1000.77
2022-09-14T06:18:48.069Z,1000.75
2022-09-14T06:19:48.094Z,1000.75
2022-09-14T06:20:48.122Z,1000.69
2022-09-14T06:21:48.158Z,1000.73
2022-09-14T06:22:48.173Z,1000.74
2022-09-14T06:23:55.375Z,1000.72
2022-09-14T06:25:52.700Z,1000.70
2022-09-14T06:26:52.245Z,1000.69
2022-09-14T06:28:45.374Z,1000.69
2022-09-14T06:29:45.387Z,1000.68
2022-09-14T06:31:38.867Z,1000.70
2022-09-14T06:32:38.350Z,1000.72
2022-09-14T06:34:42.377Z,1000.72
2022-09-14T06:35:42.391Z,1000.72
2022-09-14T06:37:46.890Z,1000.69
2022-09-14T06:38:46.451Z,1000.74
2022-09-14T06:40:50.444Z,1000.71
2022-09-14T06:41:50.464Z,1000.68
2022-09-14T06:43:43.942Z,1000.65
2022-09-14T06:44:43.621Z,1000.62
2022-09-14T06:46:47.831Z,1000.72
2022-09-14T06:47:47.657Z,1000.72
2022-09-14T06:49:52.151Z,1000.73
2022-09-14T06:50:51.716Z,1000.72
2022-09-14T06:52:44.833Z,1000.73
2022-09-14T06:53:44.867Z,1000.76
2022-09-14T06:55:50.854Z,1000.76
2022-09-14T06:56:48.906Z,1000.77
2022-09-14T06:58:52.948Z,1000.73
2022-09-14T06:59:53.006Z,1000.76
2022-09-14T07:01:46.490Z,1000.76
2022-09-14T07:02:46.090Z,1000.78
2022-09-14T07:04:49.935Z,1000.80
2022-09-14T07:05:49.950Z,1000.75
2022-09-14T07:07:54.449Z,1000.78
2022-09-14T07:08:53.995Z,1000.77
2022-09-14T07:10:46.935Z,1000.80
2022-09-14T07:11:46.956Z,1000.83
2022-09-14T07:13:51.450Z,1000.84
2022-09-14T07:14:51.009Z,1000.87
2022-09-14T07:16:55.139Z,1000.87
2022-09-14T07:17:55.052Z,1000.88
2022-09-14T07:20:00.075Z,1000.90
2022-09-14T07:21:03.496Z,1000.89
2022-09-14T07:21:59.619Z,1000.89
2022-09-14T07:22:59.645Z,1000.91
2022-09-14T07:23:59.668Z,1000.91
2022-09-14T07:24:59.696Z,1000.92
2022-09-14T07:25:59.729Z,1000.91
2022-09-14T07:26:59.751Z,1000.88
2022-09-14T07:27:59.788Z,1000.89
2022-09-14T07:28:59.799Z,1000.88
2022-09-14T07:29:59.824Z,1000.87
2022-09-14T07:30:59.874Z,1000.86
2022-09-14T07:31:59.886Z,1000.92
2022-09-14T07:32:59.906Z,1000.94
2022-09-14T07:33:59.932Z,1000.93
2022-09-14T07:34:59.966Z,1000.95
2022-09-14T07:35:59.987Z,1000.93
2022-09-14T07:37:00.013Z,1000.92
2022-09-14T07:38:00.043Z,1000.94
2022-09-14T07:39:00.086Z,1000.94
2022-09-14T07:40:00.140Z,1000.95
2022-09-14T07:41:00.123Z,1000.96
2022-09-14T07:42:00.150Z,1000.97
2022-09-14T07:43:00.178Z,1000.98
2022-09-14T07:44:00.266Z,1001.04
2022-09-14T07:45:00.229Z,1001.02
2022-09-14T07:46:00.331Z,1000.98
2022-09-14T07:47:00.285Z,1000.97
2022-09-14T07:48:00.320Z,1000.96
2022-09-14T07:49:00.343Z,1000.93
2022-09-14T07:50:00.510Z,1000.91
2022-09-14T07:51:00.393Z,1000.90
2022-09-14T07:52:00.417Z,1000.85
2022-09-14T07:53:00.448Z,1000.89
2022-09-14T07:54:00.475Z,1000.87
2022-09-14T07:55:00.498Z,1000.89
2022-09-14T07:56:00.528Z,1000.90
2022-09-14T07:57:00.561Z,1000.96
2022-09-14T07:58:00.599Z,1000.96
2022-09-14T07:59:30.808Z,1000.96
2022-09-14T08:00:00.636Z,1000.97
2022-09-14T08:01:00.695Z,1000.98
2022-09-14T08:02:00.793Z,1000.99
2022-09-14T08:03:00.716Z,1000.92
2022-09-14T08:04:05.202Z,1000.91
2022-09-14T08:05:00.774Z,1000.89
2022-09-14T08:06:00.799Z,1000.89
2022-09-14T08:07:00.837Z,1000.87
2022-09-14T08:08:00.870Z,1000.85
2022-09-14T08:09:00.878Z,1000.82
2022-09-14T08:10:00.908Z,1000.80
2022-09-14T08:11:00.937Z,1000.78
2022-09-14T08:12:00.962Z,1000.76
2022-09-14T08:13:00.988Z,1000.77
2022-09-14T08:14:01.012Z,1000.78
2022-09-14T08:15:01.042Z,1000.76
2022-09-14T08:16:01.068Z,1000.78
2022-09-14T08:17:01.184Z,1000.78
2022-09-14T08:18:01.125Z,1000.80
2022-09-14T08:19:01.150Z,1000.78
2022-09-14T08:20:01.179Z,1000.82
2022-09-14T08:21:01.203Z,1000.83
2022-09-14T08:22:01.234Z,1000.82
2022-09-14T08:23:01.264Z,1000.79
2022-09-14T08:24:01.292Z,1000.78
2022-09-14T08:25:01.317Z,1000.78
2022-09-14T08:26:01.340Z,1000.77
2022-09-14T08:27:01.380Z,1000.82
2022-09-14T08:28:01.395Z,1000.84
2022-09-14T08:29:01.435Z,1000.79
2022-09-14T08:30:01.452Z,1000.83
2022-09-14T08:31:01.478Z,1000.79
2022-09-14T08:32:01.608Z,1000.80
2022-09-14T08:33:02.081Z,1000.77
2022-09-14T08:34:01.561Z,1000.80
2022-09-14T08:35:01.589Z,1000.79
2022-09-14T08:36:01.699Z,1000.77
2022-09-14T08:37:01.643Z,1000.81
2022-09-14T08:38:01.671Z,1000.80
2022-09-14T08:39:01.694Z,1000.83
2022-09-14T08:40:01.740Z,1000.85
2022-09-14T08:41:01.749Z,1000.84
2022-09-14T08:42:01.777Z,1000.90
2022-09-14T08:43:01.805Z,1000.88
2022-09-14T08:44:01.829Z,1000.91
2022-09-14T08:45:02.570Z,1000.90
2022-09-14T08:46:01.986Z,1000.88
2022-09-14T08:47:01.916Z,1000.85
2022-09-14T08:48:01.944Z,1000.85
2022-09-14T08:49:01.968Z,1000.86
2022-09-14T08:50:01.997Z,1000.80
2022-09-14T08:51:02.029Z,1000.74
2022-09-14T08:52:02.066Z,1000.72
2022-09-14T08:53:02.081Z,1000.71
2022-09-14T08:54:02.108Z,1000.72
2022-09-14T08:55:02.132Z,1000.72
2022-09-14T08:56:02.165Z,1000.69
2022-09-14T08:57:02.199Z,1000.70
2022-09-14T08:58:02.216Z,1000.66
2022-09-14T08:59:02.247Z,1000.70
2022-09-14T09:00:02.280Z,1000.69
2022-09-14T09:01:02.324Z,1000.69
2022-09-14T09:02:02.332Z,1000.65
2022-09-14T09:03:02.359Z,1000.63
2022-09-14T09:04:02.411Z,1000.67
2022-09-14T09:05:02.445Z,1000.67
2022-09-14T09:06:02.437Z,1000.64
2022-09-14T09:07:02.466Z,1000.62
2022-09-14T09:08:02.583Z,1000.64
2022-09-14T09:09:02.526Z,1000.64
2022-09-14T09:10:02.551Z,1000.65
2022-09-14T09:11:02.580Z,1000.67
2022-09-14T09:12:02.609Z,1000.67
2022-09-14T09:13:02.655Z,1000.65
2022-09-14T09:14:02.658Z,1000.66
2022-09-14T09:15:02.689Z,1000.62
2022-09-14T09:16:02.779Z,1000.59
2022-09-14T09:17:02.749Z,1000.57
2022-09-14T09:18:02.774Z,1000.51
2022-09-14T09:19:02.806Z,1000.52
2022-09-14T09:20:02.834Z,1000.52
2022-09-14T09:21:02.890Z,1000.43
2022-09-14T09:22:02.881Z,1000.46
2022-09-14T09:23:02.912Z,1000.48
2022-09-14T09:24:02.968Z,1000.47
2022-09-14T09:25:02.969Z,1000.46
2022-09-14T09:26:02.993Z,1000.48
2022-09-14T09:27:03.023Z,1000.48
2022-09-14T09:28:03.053Z,1000.52
2022-09-14T09:29:03.081Z,1000.49
2022-09-14T09:30:03.109Z,1000.47
2022-09-14T09:31:03.203Z,1000.47
2022-09-14T09:32:03.232Z,1000.46
2022-09-14T09:33:03.197Z,1000.44
2022-09-14T09:34:03.219Z,1000.43
2022-09-14T09:35:03.247Z,1000.43
2022-09-14T09:36:03.275Z,1000.44
2022-09-14T09:37:03.302Z,1000.45
2022-09-14T09:38:03.332Z,1000.47
2022-09-14T09:39:05.283Z,1000.47
2022-09-14T09:40:03.497Z,1000.51
2022-09-14T09:41:03.415Z,1000.50
2022-09-14T09:42:03.445Z,1000.55
2022-09-14T09:43:03.471Z,1000.54
2022-09-14T09:44:03.498Z,1000.55
2022-09-14T09:45:04.212Z,1000.54
2022-09-14T09:46:03.552Z,1000.53
2022-09-14T09:47:03.660Z,1000.54
2022-09-14T09:48:03.621Z,1000.54
2022-09-14T09:49:03.633Z,1000.50
2022-09-14T09:50:03.658Z,1000.47
2022-09-14T09:51:03.690Z,1000.47
2022-09-14T09:52:03.734Z,1000.47
2022-09-14T09:53:06.789Z,1000.47
2022-09-14T09:54:03.773Z,1000.49
2022-09-14T09:55:03.804Z,1000.49
2022-09-14T09:56:03.872Z,1000.56
2022-09-14T09:57:03.858Z,1000.59
2022-09-14T09:58:03.882Z,1000.62
2022-09-14T09:59:03.915Z,1000.68
2022-09-14T10:00:03.942Z,1000.66
2022-09-14T10:01:05.325Z,1000.67
2022-09-14T10:02:04.047Z,1000.70
2022-09-14T10:03:04.023Z,1000.72
2022-09-14T10:04:04.052Z,1000.75
2022-09-14T10:05:04.100Z,1000.74
2022-09-14T10:06:04.112Z,1000.76
2022-09-14T10:07:04.135Z,1000.67
2022-09-14T10:08:08.080Z,1000.71
2022-09-14T10:09:04.191Z,1000.69
2022-09-14T10:10:04.237Z,1000.69
2022-09-14T10:11:04.244Z,1000.68
2022-09-14T10:12:04.280Z,1000.61
2022-09-14T10:13:04.299Z,1000.60
2022-09-14T10:14:04.331Z,1000.59
2022-09-14T10:15:04.362Z,1000.57
2022-09-14T10:16:04.413Z,1000.54
2022-09-14T10:17:04.416Z,1000.56
2022-09-14T10:18:04.445Z,1000.53
2022-09-14T10:19:04.476Z,1000.47
2022-09-14T10:20:04.500Z,1000.44
2022-09-14T10:21:04.540Z,1000.42
2022-09-14T10:22:04.554Z,1000.42
2022-09-14T10:23:04.578Z,1000.43
2022-09-14T10:24:04.609Z,1000.41
2022-09-14T10:25:04.634Z,1000.38
2022-09-14T10:26:04.661Z,1000.36
2022-09-14T10:27:04.692Z,1000.35
2022-09-14T10:28:04.728Z,1000.38
2022-09-14T10:29:04.753Z,1000.40
2022-09-14T10:30:04.773Z,1000.38
2022-09-14T10:31:04.895Z,1000.37
2022-09-14T10:32:04.832Z,1000.39
2022-09-14T10:33:04.859Z,1000.40
2022-09-14T10:34:04.906Z,1000.40
2022-09-14T10:35:04.917Z,1000.42
2022-09-14T10:36:04.942Z,1000.39
2022-09-14T10:37:04.969Z,1000.38
2022-09-14T10:38:04.999Z,1000.44
2022-09-14T10:39:05.026Z,1000.39
2022-09-14T10:40:05.206Z,1000.39
2022-09-14T10:41:05.084Z,1000.33
2022-09-14T10:42:05.111Z,1000.36
2022-09-14T10:43:05.138Z,1000.35
2022-09-14T10:44:05.166Z,1000.31
2022-09-14T10:45:05.194Z,1000.35
2022-09-14T10:46:05.242Z,1000.31
2022-09-14T10:47:05.331Z,1000.29
2022-09-14T10:48:05.274Z,1000.31
2022-09-14T10:49:05.310Z,1000.25
2022-09-14T10:50:05.355Z,1000.21
2022-09-14T10:51:05.360Z,1000.17
2022-09-14T10:52:05.390Z,1000.16
2022-09-14T10:53:05.415Z,1000.15
2022-09-14T10:54:05.445Z,1000.14
2022-09-14T10:55:05.470Z,1000.16
2022-09-14T10:56:05.500Z,1000.17
2022-09-14T10:57:05.538Z,1000.19
2022-09-14T10:58:05.556Z,1000.18
2022-09-14T10:59:05.583Z,1000.23
2022-09-14T11:00:05.615Z,1000.25
2022-09-14T11:01:05.640Z,1000.28
2022-09-14T11:02:05.787Z,1000.30
2022-09-14T11:03:05.745Z,1000.31
2022-09-14T11:04:05.725Z,1000.32
2022-09-14T11:05:05.758Z,1000.35
2022-09-14T11:06:05.923Z,1000.39
2022-09-14T11:07:05.807Z,1000.41
2022-09-14T11:08:05.907Z,1000.42
2022-09-14T11:09:05.858Z,1000.46
2022-09-14T11:10:05.887Z,1000.50
2022-09-14T11:11:10.727Z,1000.47
2022-09-14T11:12:05.943Z,1000.42
2022-09-14T11:13:05.971Z,1000.39
2022-09-14T11:14:06.064Z,1000.37
2022-09-14T11:15:06.031Z,1000.35
2022-09-14T11:16:06.187Z,1000.33
2022-09-14T11:17:06.079Z,1000.35
2022-09-14T11:18:06.105Z,1000.37
2022-09-14T11:19:06.139Z,1000.34
2022-09-14T11:20:06.165Z,1000.35
2022-09-14T11:21:06.194Z,1000.36
2022-09-14T11:22:06.218Z,1000.38
2022-09-14T11:23:06.247Z,1000.41
2022-09-14T11:24:06.274Z,1000.42
2022-09-14T11:25:06.300Z,1000.45
2022-09-14T11:26:06.457Z,1000.43
2022-09-14T11:27:06.356Z,1000.38
2022-09-14T11:28:06.385Z,1000.40
2022-09-14T11:29:06.411Z,1000.43
2022-09-14T11:30:06.440Z,1000.38
2022-09-14T11:31:06.618Z,1000.37
2022-09-14T11:32:22.215Z,1000.37
2022-09-14T11:33:06.520Z,1000.39
2022-09-14T11:34:06.547Z,1000.38
2022-09-14T11:35:06.576Z,1000.37
2022-09-14T11:36:06.607Z,1000.38
2022-09-14T11:37:06.629Z,1000.39
2022-09-14T11:38:06.661Z,1000.41
2022-09-14T11:39:07.107Z,1000.38
2022-09-14T11:40:06.826Z,1000.36
2022-09-14T11:41:06.741Z,1000.37
2022-09-14T11:42:06.769Z,1000.36
2022-09-14T11:43:06.795Z,1000.37
2022-09-14T11:44:06.823Z,1000.32
2022-09-14T11:45:06.853Z,1000.34
2022-09-14T11:46:07.018Z,1000.33
2022-09-14T11:47:06.905Z,1000.35
2022-09-14T11:48:25.473Z,1000.33
2022-09-14T11:49:06.962Z,1000.33
2022-09-14T11:50:06.987Z,1000.36
2022-09-14T11:51:07.017Z,1000.36
2022-09-14T11:52:07.048Z,1000.35
2022-09-14T11:53:07.070Z,1000.35
2022-09-14T11:54:07.102Z,1000.30
2022-09-14T11:55:07.128Z,1000.29
2022-09-14T11:56:07.158Z,1000.26
2022-09-14T11:57:07.179Z,1000.24
2022-09-14T11:58:07.210Z,1000.23
2022-09-14T11:59:07.251Z,1000.22
2022-09-14T12:00:07.325Z,1000.25
2022-09-14T12:01:07.293Z,1000.23
2022-09-14T12:02:07.662Z,1000.29
2022-09-14T12:03:07.448Z,1000.27
2022-09-14T12:04:07.531Z,1000.29
2022-09-14T12:05:07.421Z,1000.30
2022-09-14T12:06:07.432Z,1000.25
2022-09-14T12:07:07.456Z,1000.28
2022-09-14T12:08:07.506Z,1000.27
2022-09-14T12:09:07.512Z,1000.26
2022-09-14T12:10:07.542Z,1000.18
2022-09-14T12:11:07.568Z,1000.18
2022-09-14T12:12:07.596Z,1000.16
2022-09-14T12:13:07.625Z,1000.16
2022-09-14T12:14:07.671Z,1000.12
2022-09-14T12:15:07.678Z,1000.07
2022-09-14T12:16:07.763Z,1000.08
2022-09-14T12:17:28.635Z,1000.06
2022-09-14T12:18:07.767Z,1000.06
2022-09-14T12:19:07.790Z,1000.07
2022-09-14T12:20:07.818Z,1000.08
2022-09-14T12:21:07.845Z,1000.12
2022-09-14T12:22:07.873Z,1000.07
2022-09-14T12:23:07.898Z,1000.07
2022-09-14T12:24:07.926Z,1000.07
2022-09-14T12:25:07.954Z,1000.05
2022-09-14T12:26:08.005Z,1000.06
2022-09-14T12:27:15.248Z,1000.07
2022-09-14T12:29:12.504Z,1000.08
2022-09-14T12:30:12.059Z,1000.09
2022-09-14T12:32:16.093Z,1000.14
2022-09-14T12:33:16.110Z,1000.13
2022-09-14T12:35:20.728Z,1000.18
2022-09-14T12:36:20.154Z,1000.15
2022-09-14T12:38:24.186Z,1000.10
2022-09-14T12:39:24.202Z,1000.10
2022-09-14T12:41:17.686Z,1000.07
2022-09-14T12:42:17.161Z,1000.06
2022-09-14T12:44:21.195Z,1000.01
2022-09-14T12:45:21.207Z,1000.02
2022-09-14T12:47:26.342Z,1000.03
2022-09-14T12:48:25.739Z,1000.01
2022-09-14T12:49:25.776Z,1000.03
2022-09-14T12:50:25.878Z,1000.06
2022-09-14T12:51:25.823Z,1000.04
2022-09-14T12:52:25.850Z,1000.05
2022-09-14T12:53:25.876Z,1000.10
2022-09-14T12:54:25.907Z,1000.08
2022-09-14T12:55:25.928Z,1000.04
2022-09-14T12:56:25.960Z,999.99
2022-09-14T12:57:26.005Z,1000.03
2022-09-14T12:58:26.011Z,999.99
2022-09-14T12:59:26.043Z,999.98
2022-09-14T13:00:26.072Z,999.98
2022-09-14T13:01:26.215Z,999.96
2022-09-14T13:02:26.249Z,999.97
2022-09-14T13:03:26.160Z,999.97
2022-09-14T13:04:26.184Z,1000.00
2022-09-14T13:05:26.208Z,999.98
2022-09-14T13:06:26.249Z,999.98
2022-09-14T13:07:26.266Z,999.97
2022-09-14T13:08:26.291Z,999.96
2022-09-14T13:09:26.319Z,999.98
2022-09-14T13:10:26.350Z,999.99
2022-09-14T13:11:26.378Z,1000.05
2022-09-14T13:12:26.402Z,1000.02
2022-09-14T13:13:26.429Z,1000.05
2022-09-14T13:14:26.460Z,1000.02
2022-09-14T13:15:26.485Z,1000.01